createdAt,value
2017-08-29T00:00:41.235Z,16.12
2017-08-29T00:01:50.669Z,16.25
2017-08-29T00:02:59.516Z,16.25
2017-08-29T00:04:08.361Z,16.25
2017-08-29T00:05:17.208Z,16.14
2017-08-29T00:06:26.061Z,16.14
2017-08-29T00:07:35.237Z,16.15
2017-08-29T00:08:44.081Z,16.12
2017-08-29T00:09:52.925Z,16.11
2017-08-29T00:11:01.769Z,16.11
2017-08-29T00:12:10.615Z,16.15
2017-08-29T00:13:19.508Z,15.97
2017-08-29T00:14:28.354Z,16.14
2017-08-29T00:15:37.204Z,16.14
2017-08-29T00:16:46.049Z,16.08
2017-08-29T00:17:55.227Z,16.05
2017-08-29T00:19:04.072Z,16.09
2017-08-29T00:20:12.917Z,16.05
2017-08-29T00:21:21.762Z,16.01
2017-08-29T00:22:30.609Z,16.02
2017-08-29T00:23:39.456Z,16.07
2017-08-29T00:24:48.402Z,16
2017-08-29T00:25:57.252Z,16.01
2017-08-29T00:27:06.094Z,16
2017-08-29T00:28:14.967Z,16.01
2017-08-29T00:29:23.784Z,16.02
2017-08-29T00:30:32.778Z,15.93
2017-08-29T00:31:41.623Z,15.89
2017-08-29T00:32:50.470Z,15.97
2017-08-29T00:33:59.314Z,15.94
2017-08-29T00:35:08.164Z,15.9
2017-08-29T00:36:17.010Z,15.93
2017-08-29T00:37:26.190Z,15.96
2017-08-29T00:38:35.034Z,15.87
2017-08-29T00:39:43.879Z,15.86
2017-08-29T00:40:52.724Z,15.87
2017-08-29T00:42:01.616Z,15.86
2017-08-29T00:43:10.463Z,15.86
2017-08-29T00:44:19.312Z,15.83
2017-08-29T00:45:28.489Z,15.87
2017-08-29T00:46:37.332Z,15.87
2017-08-29T00:47:46.177Z,15.83
2017-08-29T00:48:55.023Z,15.78
2017-08-29T00:50:03.868Z,15.82
2017-08-29T00:51:12.711Z,15.78
2017-08-29T00:52:21.557Z,15.82
2017-08-29T00:53:30.551Z,15.78
2017-08-29T00:54:39.398Z,15.83
2017-08-29T00:55:48.247Z,15.75
2017-08-29T00:56:57.092Z,15.84
2017-08-29T00:58:06.608Z,15.74
2017-08-29T00:59:15.785Z,15.74
2017-08-29T01:00:24.630Z,15.69
2017-08-29T01:01:33.476Z,15.74
2017-08-29T01:02:42.319Z,15.74
2017-08-29T01:03:51.166Z,15.67
2017-08-29T01:05:00.162Z,15.69
2017-08-29T01:06:09.005Z,15.68
2017-08-29T01:07:17.851Z,15.68
2017-08-29T01:08:26.698Z,15.72
2017-08-29T01:09:35.545Z,15.72
2017-08-29T01:10:44.540Z,15.68
2017-08-29T01:11:53.385Z,15.76
2017-08-29T01:13:02.236Z,15.69
2017-08-29T01:14:11.083Z,15.68
2017-08-29T01:15:19.926Z,15.65
2017-08-29T01:16:28.920Z,15.65
2017-08-29T01:17:37.764Z,15.65
2017-08-29T01:18:46.608Z,15.62
2017-08-29T01:19:55.454Z,15.59
2017-08-29T01:21:04.398Z,15.69
2017-08-29T01:22:13.393Z,15.62
2017-08-29T01:23:22.237Z,15.6
2017-08-29T01:24:31.082Z,15.64
2017-08-29T01:25:39.931Z,15.62
2017-08-29T01:26:48.775Z,15.64
2017-08-29T01:27:57.722Z,15.59
2017-08-29T01:29:06.904Z,15.56
2017-08-29T01:30:15.749Z,15.64
2017-08-29T01:31:24.593Z,15.62
2017-08-29T01:32:33.439Z,15.6
2017-08-29T01:33:42.332Z,15.53
2017-08-29T01:34:51.178Z,15.54
2017-08-29T01:36:00.021Z,15.56
2017-08-29T01:37:08.863Z,15.53
2017-08-29T01:38:17.709Z,15.54
2017-08-29T01:39:26.557Z,15.53
2017-08-29T01:40:35.401Z,15.54
2017-08-29T01:41:44.248Z,15.51
2017-08-29T01:42:53.094Z,15.47
2017-08-29T01:44:01.936Z,15.5
2017-08-29T01:45:10.980Z,15.49
2017-08-29T01:46:19.825Z,15.5
2017-08-29T01:47:28.669Z,15.49
2017-08-29T01:48:37.515Z,15.43
2017-08-29T01:49:46.362Z,15.51
2017-08-29T01:50:55.584Z,15.49
2017-08-29T01:52:04.430Z,15.49
2017-08-29T01:53:13.276Z,15.39
2017-08-29T01:54:22.118Z,15.46
2017-08-29T01:55:30.962Z,15.5
2017-08-29T01:56:39.860Z,15.35
2017-08-29T01:57:48.704Z,15.46
2017-08-29T01:58:57.550Z,15.43
2017-08-29T02:00:06.398Z,15.49
2017-08-29T02:01:15.243Z,15.41
2017-08-29T02:02:24.288Z,15.39
2017-08-29T02:03:33.465Z,15.36
2017-08-29T02:04:42.644Z,15.43
2017-08-29T02:05:51.487Z,15.43
2017-08-29T02:07:00.331Z,15.38
2017-08-29T02:08:09.225Z,15.39
2017-08-29T02:09:18.070Z,15.41
2017-08-29T02:10:26.916Z,15.46
2017-08-29T02:11:35.763Z,15.36
2017-08-29T02:12:44.607Z,15.35
2017-08-29T02:13:53.452Z,15.34
2017-08-29T02:15:02.294Z,15.28
2017-08-29T02:16:11.139Z,15.23
2017-08-29T02:17:20.315Z,15.38
2017-08-29T02:18:29.161Z,15.29
2017-08-29T02:19:38.157Z,15.29
2017-08-29T02:20:46.999Z,15.23
2017-08-29T02:21:55.849Z,15.25
2017-08-29T02:23:04.693Z,15.31
2017-08-29T02:24:13.538Z,15.28
2017-08-29T02:25:22.483Z,15.21
2017-08-29T02:26:31.330Z,15.2
2017-08-29T02:27:40.172Z,15.23
2017-08-29T02:28:49.014Z,15.27
2017-08-29T02:29:57.857Z,15.25
2017-08-29T02:31:06.876Z,15.29
2017-08-29T02:32:15.705Z,15.27
2017-08-29T02:33:24.552Z,15.21
2017-08-29T02:34:33.397Z,15.28
2017-08-29T02:35:42.245Z,15.29
2017-08-29T02:36:51.476Z,15.29
2017-08-29T02:38:00.322Z,15.23
2017-08-29T02:39:09.169Z,15.21
2017-08-29T02:40:18.345Z,15.25
2017-08-29T02:41:27.191Z,15.27
2017-08-29T02:42:36.436Z,15.25
2017-08-29T02:43:45.281Z,15.2
2017-08-29T02:44:54.459Z,15.19
2017-08-29T02:46:03.305Z,15.2
2017-08-29T02:47:12.158Z,15.11
2017-08-29T02:48:21.202Z,15.09
2017-08-29T02:49:30.046Z,15.1
2017-08-29T02:50:38.894Z,15.16
2017-08-29T02:51:47.741Z,15.17
2017-08-29T02:52:56.584Z,15.11
2017-08-29T02:54:05.431Z,15.16
2017-08-29T02:55:14.288Z,15.14
2017-08-29T02:56:23.123Z,15.16
2017-08-29T02:57:31.966Z,15.11
2017-08-29T02:58:40.810Z,15.11
2017-08-29T02:59:49.806Z,15.03
2017-08-29T03:00:58.651Z,15.1
2017-08-29T03:02:07.498Z,15.06
2017-08-29T03:03:16.340Z,15.02
2017-08-29T03:04:25.187Z,15.01
2017-08-29T03:05:34.333Z,15.07
2017-08-29T03:06:43.177Z,14.99
2017-08-29T03:07:52.021Z,15.02
2017-08-29T03:09:00.868Z,15.13
2017-08-29T03:10:09.713Z,14.98
2017-08-29T03:11:18.711Z,14.98
2017-08-29T03:12:27.555Z,14.99
2017-08-29T03:13:36.733Z,14.95
2017-08-29T03:14:45.578Z,14.96
2017-08-29T03:15:54.425Z,14.96
2017-08-29T03:17:03.417Z,14.95
2017-08-29T03:18:12.594Z,14.89
2017-08-29T03:19:21.437Z,14.89
2017-08-29T03:20:30.282Z,14.91
2017-08-29T03:21:39.127Z,14.94
2017-08-29T03:22:47.969Z,14.89
2017-08-29T03:23:56.814Z,14.88
2017-08-29T03:25:05.659Z,14.83
2017-08-29T03:26:14.504Z,14.88
2017-08-29T03:27:23.348Z,14.84
2017-08-29T03:28:32.243Z,14.81
2017-08-29T03:29:41.088Z,14.88
2017-08-29T03:30:49.936Z,14.91
2017-08-29T03:31:58.778Z,14.83
2017-08-29T03:33:07.622Z,14.84
2017-08-29T03:34:16.570Z,14.84
2017-08-29T03:35:25.417Z,14.84
2017-08-29T03:36:34.260Z,14.83
2017-08-29T03:37:43.105Z,14.8
2017-08-29T03:38:51.949Z,14.89
2017-08-29T03:40:00.994Z,14.86
2017-08-29T03:41:09.840Z,14.77
2017-08-29T03:42:18.684Z,14.81
2017-08-29T03:43:27.530Z,14.78
2017-08-29T03:44:36.377Z,14.78
2017-08-29T03:45:45.321Z,14.75
2017-08-29T03:46:54.164Z,14.78
2017-08-29T03:48:03.010Z,14.73
2017-08-29T03:49:12.187Z,14.73
2017-08-29T03:50:21.369Z,14.69
2017-08-29T03:51:30.364Z,14.7
2017-08-29T03:52:39.209Z,14.72
2017-08-29T03:53:48.053Z,14.72
2017-08-29T03:54:56.898Z,14.75
2017-08-29T03:56:05.743Z,14.72
2017-08-29T03:57:14.738Z,14.65
2017-08-29T03:58:23.632Z,14.75
2017-08-29T03:59:32.476Z,14.64
2017-08-29T04:00:41.319Z,14.61
2017-08-29T04:01:50.163Z,14.62
2017-08-29T04:02:59.008Z,14.58
2017-08-29T04:04:07.853Z,14.64
2017-08-29T04:05:16.702Z,14.52
2017-08-29T04:06:25.544Z,14.62
2017-08-29T04:07:34.390Z,14.55
2017-08-29T04:08:43.333Z,14.61
2017-08-29T04:09:52.177Z,14.65
2017-08-29T04:11:01.024Z,14.54
2017-08-29T04:12:09.868Z,14.54
2017-08-29T04:13:18.713Z,14.61
2017-08-29T04:14:27.861Z,14.54
2017-08-29T04:15:36.708Z,14.57
2017-08-29T04:16:45.552Z,14.51
2017-08-29T04:17:54.396Z,14.55
2017-08-29T04:19:03.571Z,14.52
2017-08-29T04:20:12.564Z,14.54
2017-08-29T04:21:21.411Z,14.47
2017-08-29T04:22:30.255Z,14.5
2017-08-29T04:23:39.098Z,14.43
2017-08-29T04:24:47.941Z,14.43
2017-08-29T04:25:56.786Z,14.51
2017-08-29T04:27:05.631Z,14.51
2017-08-29T04:28:14.477Z,14.47
2017-08-29T04:29:23.322Z,14.42
2017-08-29T04:30:32.166Z,14.47
2017-08-29T04:31:41.166Z,14.45
2017-08-29T04:32:50.007Z,14.46
2017-08-29T04:33:58.854Z,14.45
2017-08-29T04:35:07.698Z,14.42
2017-08-29T04:36:16.540Z,14.47
2017-08-29T04:37:25.536Z,14.51
2017-08-29T04:38:34.380Z,14.51
2017-08-29T04:39:43.223Z,14.46
2017-08-29T04:40:52.070Z,14.51
2017-08-29T04:42:00.916Z,14.52
2017-08-29T04:43:09.811Z,14.45
2017-08-29T04:44:18.655Z,14.46
2017-08-29T04:45:27.500Z,14.43
2017-08-29T04:46:36.343Z,14.43
2017-08-29T04:47:45.188Z,14.5
2017-08-29T04:48:54.032Z,14.47
2017-08-29T04:50:03.209Z,14.43
2017-08-29T04:51:12.052Z,14.5
2017-08-29T04:52:20.894Z,14.46
2017-08-29T04:53:29.736Z,14.46
2017-08-29T04:54:38.733Z,14.47
2017-08-29T04:55:47.580Z,14.46
2017-08-29T04:56:56.424Z,14.45
2017-08-29T04:58:05.936Z,14.47
2017-08-29T04:59:14.782Z,14.46
2017-08-29T05:00:23.777Z,14.42
2017-08-29T05:01:32.627Z,14.42
2017-08-29T05:02:41.472Z,14.47
2017-08-29T05:03:50.318Z,14.43
2017-08-29T05:04:59.508Z,14.46
2017-08-29T05:06:08.504Z,14.43
2017-08-29T05:07:17.351Z,14.45
2017-08-29T05:08:26.195Z,14.51
2017-08-29T05:09:35.042Z,14.5
2017-08-29T05:10:43.901Z,14.54
2017-08-29T05:11:52.896Z,14.51
2017-08-29T05:13:01.742Z,14.4
2017-08-29T05:14:10.589Z,14.54
2017-08-29T05:15:19.437Z,14.43
2017-08-29T05:16:28.285Z,14.45
2017-08-29T05:17:37.179Z,14.5
2017-08-29T05:18:46.025Z,14.45
2017-08-29T05:19:54.868Z,14.47
2017-08-29T05:21:03.712Z,14.5
2017-08-29T05:22:12.958Z,14.43
2017-08-29T05:23:21.802Z,14.5
2017-08-29T05:24:30.647Z,14.55
2017-08-29T05:25:39.492Z,14.51
2017-08-29T05:26:48.337Z,14.55
2017-08-29T05:27:57.185Z,14.52
2017-08-29T05:29:06.033Z,14.55
2017-08-29T05:30:15.092Z,14.51
2017-08-29T05:31:23.933Z,14.52
2017-08-29T05:32:32.777Z,14.57
2017-08-29T05:33:41.626Z,14.57
2017-08-29T05:34:50.473Z,14.62
2017-08-29T05:35:59.324Z,14.51
2017-08-29T05:37:08.172Z,14.54
2017-08-29T05:38:17.023Z,14.57
2017-08-29T05:39:25.867Z,14.55
2017-08-29T05:40:34.712Z,14.58
2017-08-29T05:41:43.558Z,14.57
2017-08-29T05:42:52.405Z,14.54
2017-08-29T05:44:01.586Z,14.55
2017-08-29T05:45:10.435Z,14.62
2017-08-29T05:46:19.284Z,14.54
2017-08-29T05:47:28.135Z,14.62
2017-08-29T05:48:36.980Z,14.52
2017-08-29T05:49:45.823Z,14.52
2017-08-29T05:50:54.668Z,14.64
2017-08-29T05:52:03.516Z,14.6
2017-08-29T05:53:12.695Z,14.51
2017-08-29T05:54:21.840Z,14.61
2017-08-29T05:55:30.686Z,14.61
2017-08-29T05:56:39.531Z,14.62
2017-08-29T05:57:48.381Z,14.62
2017-08-29T05:58:57.223Z,14.6
2017-08-29T06:00:06.220Z,14.73
2017-08-29T06:01:15.064Z,14.69
2017-08-29T06:02:23.909Z,14.64
2017-08-29T06:03:32.754Z,14.77
2017-08-29T06:04:41.603Z,14.7
2017-08-29T06:05:50.598Z,14.78
2017-08-29T06:06:59.444Z,14.83
2017-08-29T06:08:08.291Z,14.81
2017-08-29T06:09:17.137Z,14.8
2017-08-29T06:10:25.983Z,14.72
2017-08-29T06:11:35.212Z,14.83
2017-08-29T06:12:44.061Z,14.88
2017-08-29T06:13:52.904Z,14.91
2017-08-29T06:15:01.751Z,14.99
2017-08-29T06:16:10.601Z,14.96
2017-08-29T06:17:19.602Z,14.98
2017-08-29T06:18:28.447Z,14.99
2017-08-29T06:19:37.292Z,15.09
2017-08-29T06:20:46.140Z,15.07
2017-08-29T06:21:54.989Z,15.11
2017-08-29T06:23:03.985Z,15.13
2017-08-29T06:24:12.832Z,15.21
2017-08-29T06:25:21.679Z,15.27
2017-08-29T06:26:30.527Z,15.25
2017-08-29T06:27:39.374Z,15.32
2017-08-29T06:28:48.321Z,15.27
2017-08-29T06:29:57.167Z,15.2
2017-08-29T06:31:06.016Z,15.31
2017-08-29T06:32:14.864Z,15.31
2017-08-29T06:33:23.762Z,15.41
2017-08-29T06:34:32.760Z,15.41
2017-08-29T06:35:41.604Z,15.43
2017-08-29T06:36:50.452Z,15.44
2017-08-29T06:37:59.301Z,15.47
2017-08-29T06:39:08.153Z,15.53
2017-08-29T06:40:17.480Z,15.56
2017-08-29T06:41:26.330Z,15.53
2017-08-29T06:42:35.178Z,15.6
2017-08-29T06:43:44.025Z,15.65
2017-08-29T06:44:52.879Z,15.57
2017-08-29T06:46:02.061Z,15.65
2017-08-29T06:47:10.910Z,15.64
2017-08-29T06:48:19.759Z,15.69
2017-08-29T06:49:28.619Z,15.78
2017-08-29T06:50:37.466Z,15.74
2017-08-29T06:51:46.363Z,15.74
2017-08-29T06:52:55.212Z,15.83
2017-08-29T06:54:04.061Z,15.89
2017-08-29T06:55:12.908Z,15.83
2017-08-29T06:56:21.758Z,15.94
2017-08-29T06:57:30.995Z,16
2017-08-29T06:58:40.185Z,15.9
2017-08-29T06:59:49.033Z,15.97
2017-08-29T07:00:57.880Z,15.97
2017-08-29T07:02:06.732Z,16
2017-08-29T07:03:15.630Z,16.01
2017-08-29T07:04:24.486Z,16.05
2017-08-29T07:05:33.334Z,16.12
2017-08-29T07:06:42.185Z,16.15
2017-08-29T07:07:51.033Z,16.17
2017-08-29T07:08:59.882Z,16.23
2017-08-29T07:10:08.733Z,16.28
2017-08-29T07:11:17.588Z,16.23
2017-08-29T07:12:26.437Z,16.3
2017-08-29T07:13:35.285Z,16.38
2017-08-29T07:14:44.600Z,16.43
2017-08-29T07:15:53.446Z,16.5
2017-08-29T07:17:02.296Z,16.46
2017-08-29T07:18:11.145Z,16.5
2017-08-29T07:19:19.995Z,16.6
2017-08-29T07:20:29.103Z,16.63
2017-08-29T07:21:38.301Z,16.58
2017-08-29T07:22:47.146Z,16.61
2017-08-29T07:23:55.996Z,16.7
2017-08-29T07:25:04.844Z,16.73
2017-08-29T07:26:13.859Z,16.78
2017-08-29T07:27:22.708Z,16.86
2017-08-29T07:28:31.889Z,16.97
2017-08-29T07:29:40.737Z,16.89
2017-08-29T07:30:49.587Z,17
2017-08-29T07:31:58.927Z,16.96
2017-08-29T07:33:07.777Z,16.91
2017-08-29T07:34:16.625Z,16.94
2017-08-29T07:35:25.476Z,16.94
2017-08-29T07:36:34.328Z,17
2017-08-29T07:37:43.283Z,17.06
2017-08-29T07:38:52.134Z,17.07
2017-08-29T07:40:00.983Z,17.19
2017-08-29T07:41:09.837Z,17.33
2017-08-29T07:42:18.707Z,17.28
2017-08-29T07:43:27.724Z,17.38
2017-08-29T07:44:36.573Z,17.41
2017-08-29T07:45:45.424Z,17.44
2017-08-29T07:46:54.281Z,17.49
2017-08-29T07:48:03.132Z,17.54
2017-08-29T07:49:12.096Z,17.49
2017-08-29T07:50:20.947Z,17.55
2017-08-29T07:51:29.812Z,17.63
2017-08-29T07:52:38.660Z,17.7
2017-08-29T07:53:47.514Z,17.7
2017-08-29T07:54:56.616Z,17.74
2017-08-29T07:56:05.484Z,17.75
2017-08-29T07:57:14.331Z,17.87
2017-08-29T07:58:23.182Z,17.89
2017-08-29T07:59:32.033Z,17.99
2017-08-29T08:00:41.054Z,18.08
2017-08-29T08:01:49.919Z,18.14
2017-08-29T08:02:58.770Z,18.05
2017-08-29T08:04:07.624Z,18.1
2017-08-29T08:05:16.475Z,18.23
2017-08-29T08:06:25.481Z,18.32
2017-08-29T08:07:34.663Z,18.37
2017-08-29T08:08:43.512Z,18.33
2017-08-29T08:09:52.361Z,18.39
2017-08-29T08:11:01.232Z,18.44
2017-08-29T08:12:10.231Z,18.48
2017-08-29T08:13:19.084Z,18.44
2017-08-29T08:14:27.933Z,18.52
2017-08-29T08:15:36.784Z,18.52
2017-08-29T08:16:45.635Z,18.69
2017-08-29T08:17:54.738Z,18.7
2017-08-29T08:19:03.588Z,18.84
2017-08-29T08:20:12.443Z,18.98
2017-08-29T08:21:21.301Z,19.04
2017-08-29T08:22:30.153Z,19
2017-08-29T08:23:39.306Z,18.98
2017-08-29T08:24:48.157Z,18.98
2017-08-29T08:25:57.010Z,19.07
2017-08-29T08:27:05.889Z,19.06
2017-08-29T08:28:14.714Z,19.04
2017-08-29T08:29:23.728Z,19.13
2017-08-29T08:30:32.582Z,19.18
2017-08-29T08:31:41.435Z,19.31
2017-08-29T08:32:50.290Z,19.29
2017-08-29T08:33:59.145Z,19.28
2017-08-29T08:35:08.299Z,19.44
2017-08-29T08:36:17.150Z,19.46
2017-08-29T08:37:26.338Z,19.58
2017-08-29T08:38:35.191Z,19.69
2017-08-29T08:39:44.042Z,19.8
2017-08-29T08:40:53.284Z,19.83
2017-08-29T08:42:02.163Z,19.78
2017-08-29T08:43:11.018Z,19.88
2017-08-29T08:44:19.870Z,19.84
2017-08-29T08:45:28.724Z,19.94
2017-08-29T08:46:37.908Z,20.1
2017-08-29T08:47:46.763Z,20.05
2017-08-29T08:48:55.711Z,20.06
2017-08-29T08:50:04.572Z,20.1
2017-08-29T08:51:13.765Z,20.23
2017-08-29T08:52:22.767Z,20.28
2017-08-29T08:53:31.636Z,20.23
2017-08-29T08:54:40.485Z,20.2
2017-08-29T08:55:49.338Z,20.28
2017-08-29T08:56:58.190Z,20.35
2017-08-29T08:58:07.120Z,20.21
2017-08-29T08:59:15.975Z,20.35
2017-08-29T09:00:24.891Z,20.36
2017-08-29T09:01:33.778Z,20.48
2017-08-29T09:02:42.741Z,20.69
2017-08-29T09:03:51.937Z,20.72
2017-08-29T09:05:00.829Z,20.87
2017-08-29T09:06:09.712Z,20.95
2017-08-29T09:07:18.643Z,20.92
2017-08-29T09:08:27.494Z,20.91
2017-08-29T09:09:36.448Z,20.97
2017-08-29T09:10:45.307Z,20.98
2017-08-29T09:11:54.158Z,21.17
2017-08-29T09:13:03.016Z,21.28
2017-08-29T09:14:11.860Z,21.35
2017-08-29T09:15:21.044Z,21.29
2017-08-29T09:16:29.934Z,21.37
2017-08-29T09:17:38.809Z,21.4
2017-08-29T09:18:47.664Z,21.47
2017-08-29T09:19:56.514Z,21.56
2017-08-29T09:21:05.483Z,21.65
2017-08-29T09:22:14.380Z,21.46
2017-08-29T09:23:23.237Z,21.59
2017-08-29T09:24:32.092Z,21.67
2017-08-29T09:25:40.945Z,21.64
2017-08-29T09:26:49.803Z,21.77
2017-08-29T09:27:58.704Z,21.72
2017-08-29T09:29:07.561Z,21.8
2017-08-29T09:30:16.443Z,21.79
2017-08-29T09:31:25.315Z,21.86
2017-08-29T09:32:34.339Z,21.86
2017-08-29T09:33:43.221Z,21.92
2017-08-29T09:34:52.116Z,21.99
2017-08-29T09:36:00.979Z,21.99
2017-08-29T09:37:09.870Z,22.18
2017-08-29T09:38:18.886Z,22.18
2017-08-29T09:39:27.762Z,22.21
2017-08-29T09:40:36.614Z,22.28
2017-08-29T09:41:45.474Z,22.25
2017-08-29T09:42:54.329Z,22.07
2017-08-29T09:44:03.484Z,22.33
2017-08-29T09:45:12.376Z,22.14
2017-08-29T09:46:21.256Z,22.25
2017-08-29T09:47:30.439Z,22.35
2017-08-29T09:48:39.294Z,22.3
2017-08-29T09:49:48.150Z,22.62
2017-08-29T09:50:57.029Z,22.73
2017-08-29T09:52:05.885Z,22.85
2017-08-29T09:53:14.758Z,22.75
2017-08-29T09:54:23.715Z,22.77
2017-08-29T09:55:32.848Z,22.57
2017-08-29T09:56:41.725Z,22.57
2017-08-29T09:57:50.584Z,22.7
2017-08-29T09:58:59.453Z,22.75
2017-08-29T10:00:08.305Z,22.75
2017-08-29T10:01:17.378Z,22.77
2017-08-29T10:02:26.250Z,22.86
2017-08-29T10:03:35.434Z,22.91
2017-08-29T10:04:44.294Z,22.85
2017-08-29T10:05:53.148Z,22.97
2017-08-29T10:07:02.052Z,22.97
2017-08-29T10:08:10.907Z,22.98
2017-08-29T10:09:19.766Z,22.8
2017-08-29T10:10:28.620Z,22.97
2017-08-29T10:11:37.472Z,23.1
2017-08-29T10:12:46.324Z,23.02
2017-08-29T10:13:55.177Z,22.97
2017-08-29T10:15:04.030Z,22.7
2017-08-29T10:16:12.912Z,22.7
2017-08-29T10:17:21.775Z,22.75
2017-08-29T10:18:30.805Z,23
2017-08-29T10:19:40.000Z,22.79
2017-08-29T10:20:48.854Z,23.15
2017-08-29T10:21:57.707Z,23.35
2017-08-29T10:23:06.571Z,23.31
2017-08-29T10:24:15.675Z,23.38
2017-08-29T10:25:24.529Z,23.43
2017-08-29T10:26:33.388Z,23.27
2017-08-29T10:27:42.242Z,23.58
2017-08-29T10:28:51.100Z,23.55
2017-08-29T10:30:00.002Z,23.5
2017-08-29T10:31:08.862Z,23.57
2017-08-29T10:32:17.714Z,23.73
2017-08-29T10:33:26.565Z,23.9
2017-08-29T10:34:35.433Z,23.87
2017-08-29T10:35:44.435Z,23.91
2017-08-29T10:36:53.329Z,23.83
2017-08-29T10:38:02.185Z,23.88
2017-08-29T10:39:11.042Z,23.93
2017-08-29T10:40:19.892Z,23.97
2017-08-29T10:41:28.848Z,24.05
2017-08-29T10:42:37.713Z,24.2
2017-08-29T10:43:46.571Z,23.87
2017-08-29T10:44:55.425Z,23.94
2017-08-29T10:46:04.283Z,24.06
2017-08-29T10:47:13.414Z,24.34
2017-08-29T10:48:22.271Z,24.28
2017-08-29T10:49:31.129Z,24.32
2017-08-29T10:50:40.005Z,24.15
2017-08-29T10:51:49.234Z,24.34
2017-08-29T10:52:58.297Z,24.46
2017-08-29T10:54:07.484Z,24.67
2017-08-29T10:55:16.397Z,24.78
2017-08-29T10:56:25.390Z,24.81
2017-08-29T10:57:35.678Z,24.8
2017-08-29T10:58:44.655Z,24.85
2017-08-29T10:59:53.694Z,24.61
2017-08-29T11:01:02.921Z,24.34
2017-08-29T11:02:13.016Z,24.43
2017-08-29T11:03:21.876Z,24.52
2017-08-29T11:04:31.084Z,24.65
2017-08-29T11:05:39.950Z,24.76
2017-08-29T11:06:48.802Z,24.83
2017-08-29T11:07:57.973Z,24.61
2017-08-29T11:09:07.093Z,24.8
2017-08-29T11:10:16.179Z,24.9
2017-08-29T11:11:25.427Z,24.9
2017-08-29T11:12:34.597Z,25.03
2017-08-29T11:13:43.793Z,25.14
2017-08-29T11:14:53.032Z,25.09
2017-08-29T11:16:02.212Z,25.05
2017-08-29T11:17:11.529Z,25.09
2017-08-29T11:18:20.480Z,25.21
2017-08-29T11:19:29.740Z,25.35
2017-08-29T11:20:39.220Z,25.52
2017-08-29T11:21:48.643Z,25.54
2017-08-29T11:22:57.891Z,25.67
2017-08-29T11:24:07.450Z,25.58
2017-08-29T11:25:16.905Z,25.6
2017-08-29T11:26:25.984Z,25.62
2017-08-29T11:27:35.179Z,25.69
2017-08-29T11:28:44.564Z,25.75
2017-08-29T11:29:53.765Z,25.82
2017-08-29T11:31:03.044Z,25.82
2017-08-29T11:32:12.150Z,25.88
2017-08-29T11:33:21.442Z,25.95
2017-08-29T11:34:30.873Z,25.97
2017-08-29T11:35:40.499Z,26.06
2017-08-29T11:36:49.391Z,25.97
2017-08-29T11:37:59.089Z,25.98
2017-08-29T11:39:08.200Z,26.05
2017-08-29T11:40:17.055Z,25.94
2017-08-29T11:41:25.908Z,25.79
2017-08-29T11:42:34.765Z,25.94
2017-08-29T11:43:43.621Z,25.76
2017-08-29T11:44:52.475Z,25.88
2017-08-29T11:46:01.327Z,25.94
2017-08-29T11:47:10.185Z,25.82
2017-08-29T11:48:19.046Z,25.83
2017-08-29T11:49:27.903Z,26.02
2017-08-29T11:50:37.058Z,25.95
2017-08-29T11:51:45.917Z,26.13
2017-08-29T11:52:54.783Z,26.3
2017-08-29T11:54:03.633Z,26.26
2017-08-29T11:55:12.487Z,26.33
2017-08-29T11:56:21.441Z,26.35
2017-08-29T11:57:30.298Z,26.4
2017-08-29T11:58:39.157Z,26.43
2017-08-29T11:59:48.011Z,26.43
2017-08-29T12:00:56.871Z,26.45
2017-08-29T12:02:05.788Z,26.6
2017-08-29T12:03:14.659Z,26.58
2017-08-29T12:04:23.636Z,26.84
2017-08-29T12:05:32.859Z,26.85
2017-08-29T12:06:41.728Z,26.87
2017-08-29T12:07:50.686Z,26.95
2017-08-29T12:08:59.543Z,26.89
2017-08-29T12:10:08.476Z,26.99
2017-08-29T12:11:17.339Z,27
2017-08-29T12:12:26.195Z,27.12
2017-08-29T12:13:35.392Z,27.21
2017-08-29T12:14:44.255Z,27.32
2017-08-29T12:15:53.117Z,27.4
2017-08-29T12:17:01.975Z,27.36
2017-08-29T12:18:10.838Z,27.34
2017-08-29T12:19:19.994Z,27.29
2017-08-29T12:20:28.858Z,27.43
2017-08-29T12:21:37.721Z,27.36
2017-08-29T12:22:46.584Z,27.39
2017-08-29T12:23:55.447Z,27.46
2017-08-29T12:25:04.607Z,27.51
2017-08-29T12:26:13.474Z,27.55
2017-08-29T12:27:22.336Z,27.63
2017-08-29T12:28:31.197Z,27.59
2017-08-29T12:29:40.058Z,27.59
2017-08-29T12:30:48.945Z,27.81
2017-08-29T12:31:57.806Z,27.87
2017-08-29T12:33:06.679Z,27.82
2017-08-29T12:34:15.541Z,27.79
2017-08-29T12:35:24.426Z,27.88
2017-08-29T12:36:34.902Z,27.88
2017-08-29T12:37:44.201Z,28.09
2017-08-29T12:38:53.063Z,28.02
2017-08-29T12:40:01.928Z,28.14
2017-08-29T12:41:10.793Z,28.03
2017-08-29T12:42:19.809Z,28.02
2017-08-29T12:43:28.675Z,28.07
2017-08-29T12:44:37.537Z,28.07
2017-08-29T12:45:46.397Z,28.04
2017-08-29T12:46:55.260Z,28
2017-08-29T12:48:04.280Z,28.03
2017-08-29T12:49:13.224Z,28.02
2017-08-29T12:50:22.091Z,27.97
2017-08-29T12:51:30.996Z,28.04
2017-08-29T12:52:39.899Z,28.03
2017-08-29T12:54:18.877Z,28.09
2017-08-29T12:55:27.785Z,28.07
2017-08-29T12:56:36.868Z,28.02
2017-08-29T12:57:45.958Z,28.04
2017-08-29T12:58:55.057Z,28.03
2017-08-29T13:00:03.919Z,28.06
2017-08-29T13:01:12.778Z,28.14
2017-08-29T13:02:21.711Z,28.24
2017-08-29T13:03:30.573Z,28.33
2017-08-29T13:04:39.636Z,28.33
2017-08-29T13:05:48.498Z,28.39
2017-08-29T13:06:57.367Z,28.33
2017-08-29T13:08:06.243Z,28.37
2017-08-29T13:09:15.103Z,28.48
2017-08-29T13:10:24.017Z,28.44
2017-08-29T13:11:32.876Z,28.39
2017-08-29T13:12:41.797Z,28.4
2017-08-29T13:13:50.658Z,28.43
2017-08-29T13:14:59.519Z,28.25
2017-08-29T13:16:08.533Z,28.41
2017-08-29T13:17:17.478Z,28.22
2017-08-29T13:18:26.417Z,28.22
2017-08-29T13:19:35.665Z,28.22
2017-08-29T13:20:44.612Z,28.18
2017-08-29T13:21:53.825Z,28.21
2017-08-29T13:23:02.688Z,28.4
2017-08-29T13:24:11.563Z,28.51
2017-08-29T13:25:20.423Z,28.46
2017-08-29T13:26:29.285Z,28.49
2017-08-29T13:27:38.397Z,28.43
2017-08-29T13:28:47.252Z,28.48
2017-08-29T13:29:56.112Z,28.51
2017-08-29T13:31:04.973Z,28.55
2017-08-29T13:32:13.834Z,28.54
2017-08-29T13:33:22.796Z,28.67
2017-08-29T13:34:31.667Z,28.66
2017-08-29T13:35:40.536Z,28.64
2017-08-29T13:36:49.420Z,28.68
2017-08-29T13:37:58.285Z,28.73
2017-08-29T13:39:07.199Z,28.74
2017-08-29T13:40:16.066Z,29.02
2017-08-29T13:41:24.926Z,29.12
2017-08-29T13:42:33.789Z,29.16
2017-08-29T13:43:42.648Z,29.18
2017-08-29T13:44:51.756Z,29.24
2017-08-29T13:46:00.619Z,29.28
2017-08-29T13:47:09.477Z,29.3
2017-08-29T13:48:18.339Z,29.42
2017-08-29T13:49:27.201Z,29.45
2017-08-29T13:50:36.449Z,29.58
2017-08-29T13:51:45.310Z,29.48
2017-08-29T13:52:54.176Z,29.45
2017-08-29T13:54:03.370Z,29.48
2017-08-29T13:55:12.233Z,29.58
2017-08-29T13:56:21.401Z,29.64
2017-08-29T13:57:30.264Z,29.67
2017-08-29T13:58:39.461Z,29.8
2017-08-29T13:59:48.322Z,29.92
2017-08-29T14:00:57.189Z,29.87
2017-08-29T14:02:06.256Z,30.1
2017-08-29T14:03:15.119Z,30.37
2017-08-29T14:04:23.980Z,30.47
2017-08-29T14:05:32.846Z,30.64
2017-08-29T14:06:41.719Z,30.7
2017-08-29T14:07:50.632Z,30.83
2017-08-29T14:08:59.507Z,30.53
2017-08-29T14:10:08.421Z,30.39
2017-08-29T14:11:17.502Z,30.32
2017-08-29T14:12:26.372Z,30.42
2017-08-29T14:13:35.240Z,30.72
2017-08-29T14:14:44.113Z,30.13
2017-08-29T14:15:52.974Z,30.38
2017-08-29T14:17:01.840Z,29.92
2017-08-29T14:18:10.706Z,29.61
2017-08-29T14:19:19.727Z,30.07
2017-08-29T14:20:28.797Z,30.46
2017-08-29T14:21:37.735Z,30.75
2017-08-29T14:22:46.631Z,30.89
2017-08-29T14:23:55.498Z,31.02
2017-08-29T14:25:04.370Z,31.29
2017-08-29T14:26:13.237Z,31.2
2017-08-29T14:27:22.127Z,31.35
2017-08-29T14:28:31.155Z,31.54
2017-08-29T14:29:40.024Z,31.66
2017-08-29T14:30:48.944Z,31.62
2017-08-29T14:31:57.811Z,31.47
2017-08-29T14:33:06.679Z,31.61
2017-08-29T14:34:15.548Z,31.66
2017-08-29T14:35:24.416Z,31.68
2017-08-29T14:36:33.283Z,31.66
2017-08-29T14:37:42.153Z,31.73
2017-08-29T14:38:51.025Z,31.7
2017-08-29T14:40:00.196Z,31.63
2017-08-29T14:41:09.064Z,31.7
2017-08-29T14:42:17.935Z,31.68
2017-08-29T14:43:26.805Z,31.56
2017-08-29T14:44:35.682Z,31.66
2017-08-29T14:45:44.819Z,31.7
2017-08-29T14:46:53.691Z,31.63
2017-08-29T14:48:02.566Z,31.75
2017-08-29T14:49:11.435Z,31.68
2017-08-29T14:50:20.605Z,31.89
2017-08-29T14:51:29.474Z,31.88